sensor_id;sensor_type;location;lat;lon;timestamp;pressure;altitude;pressure_sealevel;temperature;humidity
15260;BME280;34462;51.368;12.364;2022-10-16T00:01:44;18749.03;;;-141.84;84.69
15260;BME280;34462;51.368;12.364;2022-10-16T00:04:12;18747.00;;;-141.84;85.08
15260;BME280;34462;51.368;12.364;2022-10-16T00:06:40;18728.72;;;-141.84;85.45
15260;BME280;34462;51.368;12.364;2022-10-16T00:09:10;18688.06;;;-141.84;85.87
15260;BME280;34462;51.368;12.364;2022-10-16T00:11:39;18675.88;;;-141.84;86.24
15260;BME280;34462;51.368;12.364;2022-10-16T00:14:11;18704.31;;;-141.84;86.69
15260;BME280;34462;51.368;12.364;2022-10-16T00:16:39;18688.06;;;-141.84;86.94
15260;BME280;34462;51.368;12.364;2022-10-16T00:19:08;18679.94;;;-141.84;87.23
15260;BME280;34462;51.368;12.364;2022-10-16T00:21:36;18700.25;;;-141.84;87.36
15260;BME280;34462;51.368;12.364;2022-10-16T00:24:08;18704.31;;;-141.84;87.65
15260;BME280;34462;51.368;12.364;2022-10-16T00:26:39;18675.88;;;-141.84;87.79
15260;BME280;34462;51.368;12.364;2022-10-16T00:29:07;18690.09;;;-141.84;87.33
15260;BME280;34462;51.368;12.364;2022-10-16T00:31:36;18661.66;;;-141.84;86.97
15260;BME280;34462;51.368;12.364;2022-10-16T00:34:04;18686.03;;;-141.84;86.46
15260;BME280;34462;51.368;12.364;2022-10-16T00:36:32;18712.47;;;-141.84;86.34
15260;BME280;34462;51.368;12.364;2022-10-16T00:39:02;18708.41;;;-141.84;85.94
15260;BME280;34462;51.368;12.364;2022-10-16T00:41:31;18738.88;;;-141.84;85.24
15260;BME280;34462;51.368;12.364;2022-10-16T00:44:03;18751.06;;;-141.84;84.76
15260;BME280;34462;51.368;12.364;2022-10-16T00:46:38;18761.22;;;-141.84;83.61
15260;BME280;34462;51.368;12.364;2022-10-16T00:49:10;18716.53;;;-141.84;82.46
15260;BME280;34462;51.368;12.364;2022-10-16T00:51:41;18736.84;;;-141.84;82.26
15260;BME280;34462;51.368;12.364;2022-10-16T00:54:15;18704.31;;;-141.84;82.69
15260;BME280;34462;51.368;12.364;2022-10-16T00:56:45;18728.72;;;-141.84;82.79
15260;BME280;34462;51.368;12.364;2022-10-16T00:59:20;18732.78;;;-141.84;82.35
15260;BME280;34462;51.368;12.364;2022-10-16T01:01:51;18767.31;;;-141.84;82.30
15260;BME280;34462;51.368;12.364;2022-10-16T01:04:20;18740.91;;;-141.84;82.86
15260;BME280;34462;51.368;12.364;2022-10-16T01:06:57;18722.63;;;-141.84;83.27
15260;BME280;34462;51.368;12.364;2022-10-16T01:09:38;18714.50;;;-141.84;83.71
15260;BME280;34462;51.368;12.364;2022-10-16T01:12:19;18696.19;;;-141.84;83.93
15260;BME280;34462;51.368;12.364;2022-10-16T01:14:57;18706.38;;;-141.84;84.21
15260;BME280;34462;51.368;12.364;2022-10-16T01:17:34;18724.66;;;-141.84;83.96
15260;BME280;34462;51.368;12.364;2022-10-16T01:20:12;18716.53;;;-141.84;84.12
15260;BME280;34462;51.368;12.364;2022-10-16T01:23:05;18673.84;;;-141.84;83.69
15260;BME280;34462;51.368;12.364;2022-10-16T01:25:53;18694.16;;;-141.84;84.28
15260;BME280;34462;51.368;12.364;2022-10-16T01:28:34;18677.91;;;-141.84;84.78
15260;BME280;34462;51.368;12.364;2022-10-16T01:31:04;18706.38;;;-141.84;84.61
15260;BME280;34462;51.368;12.364;2022-10-16T01:33:40;18661.66;;;-141.84;84.88
15260;BME280;34462;51.368;12.364;2022-10-16T01:36:14;18686.03;;;-141.84;85.17
15260;BME280;34462;51.368;12.364;2022-10-16T01:38:50;18623.06;;;-141.84;85.88
15260;BME280;34462;51.368;12.364;2022-10-16T01:41:24;18647.44;;;-141.84;86.04
15260;BME280;34462;51.368;12.364;2022-10-16T01:44:02;18647.44;;;-141.84;85.95
15260;BME280;34462;51.368;12.364;2022-10-16T01:46:33;18619.00;;;-141.84;86.29
15260;BME280;34462;51.368;12.364;2022-10-16T01:49:03;18627.13;;;-141.84;86.82
15260;BME280;34462;51.368;12.364;2022-10-16T01:51:33;18604.78;;;-141.84;87.11
15260;BME280;34462;51.368;12.364;2022-10-16T01:54:07;18600.72;;;-141.84;87.42
15260;BME280;34462;51.368;12.364;2022-10-16T01:56:36;18590.56;;;-141.84;87.85
15260;BME280;34462;51.368;12.364;2022-10-16T01:59:12;18629.16;;;-141.84;88.15
15260;BME280;34462;51.368;12.364;2022-10-16T02:01:47;18596.66;;;-141.84;88.68
15260;BME280;34462;51.368;12.364;2022-10-16T02:04:24;18578.38;;;-141.84;89.11
15260;BME280;34462;51.368;12.364;2022-10-16T02:06:55;18598.69;;;-141.84;89.46
15260;BME280;34462;51.368;12.364;2022-10-16T02:09:23;18513.34;;;-141.84;89.74
15260;BME280;34462;51.368;12.364;2022-10-16T02:11:54;18519.44;;;-141.84;89.98
15260;BME280;34462;51.368;12.364;2022-10-16T02:14:26;18515.38;;;-141.84;90.39
15260;BME280;34462;51.368;12.364;2022-10-16T02:16:55;18562.09;;;-141.84;90.71
15260;BME280;34462;51.368;12.364;2022-10-16T02:19:23;18509.28;;;-141.84;91.03
15260;BME280;34462;51.368;12.364;2022-10-16T02:21:57;18527.56;;;-141.84;91.16
15260;BME280;34462;51.368;12.364;2022-10-16T02:24:33;18535.69;;;-141.84;91.19
15260;BME280;34462;51.368;12.364;2022-10-16T02:27:07;18553.97;;;-141.84;91.35
15260;BME280;34462;51.368;12.364;2022-10-16T02:29:43;18486.94;;;-141.84;91.56
15260;BME280;34462;51.368;12.364;2022-10-16T02:32:19;18513.34;;;-141.84;91.67
15260;BME280;34462;51.368;12.364;2022-10-16T02:34:50;18497.09;;;-141.84;91.68
15260;BME280;34462;51.368;12.364;2022-10-16T02:37:19;18480.84;;;-141.84;91.76
15260;BME280;34462;51.368;12.364;2022-10-16T02:39:47;18503.19;;;-141.84;91.94
15260;BME280;34462;51.368;12.364;2022-10-16T02:42:18;18515.38;;;-141.84;92.05
15260;BME280;34462;51.368;12.364;2022-10-16T02:44:47;18480.84;;;-141.84;91.83
15260;BME280;34462;51.368;12.364;2022-10-16T02:47:15;18482.88;;;-141.84;91.73
15260;BME280;34462;51.368;12.364;2022-10-16T02:49:43;18488.97;;;-141.84;91.79
15260;BME280;34462;51.368;12.364;2022-10-16T02:52:11;18462.56;;;-141.84;91.68
15260;BME280;34462;51.368;12.364;2022-10-16T02:54:39;18493.03;;;-141.84;91.71
15260;BME280;34462;51.368;12.364;2022-10-16T02:57:07;18493.03;;;-141.84;91.54
15260;BME280;34462;51.368;12.364;2022-10-16T02:59:35;18480.84;;;-141.84;91.36
15260;BME280;34462;51.368;12.364;2022-10-16T03:02:05;18499.13;;;-141.84;91.24
15260;BME280;34462;51.368;12.364;2022-10-16T03:04:33;18460.53;;;-141.84;91.22
15260;BME280;34462;51.368;12.364;2022-10-16T03:07:02;18519.44;;;-141.84;91.35
15260;BME280;34462;51.368;12.364;2022-10-16T03:09:30;18495.06;;;-141.84;91.39
15260;BME280;34462;51.368;12.364;2022-10-16T03:11:58;18482.88;;;-141.84;91.38
15260;BME280;34462;51.368;12.364;2022-10-16T03:14:26;18444.28;;;-141.84;91.57
15260;BME280;34462;51.368;12.364;2022-10-16T03:16:59;18440.22;;;-141.84;91.90
15260;BME280;34462;51.368;12.364;2022-10-16T03:19:29;18452.41;;;-141.84;92.01
15260;BME280;34462;51.368;12.364;2022-10-16T03:21:57;18430.06;;;-141.84;92.27
15260;BME280;34462;51.368;12.364;2022-10-16T03:24:25;18436.16;;;-141.84;92.59
15260;BME280;34462;51.368;12.364;2022-10-16T03:26:53;18407.69;;;-141.84;92.69
15260;BME280;34462;51.368;12.364;2022-10-16T03:29:21;18425.97;;;-141.84;93.00
15260;BME280;34462;51.368;12.364;2022-10-16T03:31:49;18428.03;;;-141.84;93.06
15260;BME280;34462;51.368;12.364;2022-10-16T03:34:17;18436.16;;;-141.84;93.13
15260;BME280;34462;51.368;12.364;2022-10-16T03:36:46;18375.19;;;-141.84;93.20
15260;BME280;34462;51.368;12.364;2022-10-16T03:39:14;18411.75;;;-141.84;93.33
15260;BME280;34462;51.368;12.364;2022-10-16T03:41:42;18411.75;;;-141.84;93.37
15260;BME280;34462;51.368;12.364;2022-10-16T03:44:10;18403.63;;;-141.84;93.63
15260;BME280;34462;51.368;12.364;2022-10-16T03:46:38;18415.81;;;-141.84;93.59
15260;BME280;34462;51.368;12.364;2022-10-16T03:49:06;18385.34;;;-141.84;93.54
15260;BME280;34462;51.368;12.364;2022-10-16T03:51:35;18389.41;;;-141.84;93.45
15260;BME280;34462;51.368;12.364;2022-10-16T03:54:05;18425.97;;;-141.84;93.47
15260;BME280;34462;51.368;12.364;2022-10-16T03:56:33;18409.72;;;-141.84;93.17
15260;BME280;34462;51.368;12.364;2022-10-16T03:59:01;18409.72;;;-141.84;93.35
15260;BME280;34462;51.368;12.364;2022-10-16T04:01:29;18411.75;;;-141.84;93.15
15260;BME280;34462;51.368;12.364;2022-10-16T04:03:57;18415.81;;;-141.84;93.06
15260;BME280;34462;51.368;12.364;2022-10-16T04:06:25;18423.94;;;-141.84;92.72
15260;BME280;34462;51.368;12.364;2022-10-16T04:08:53;18419.88;;;-141.84;92.58
15260;BME280;34462;51.368;12.364;2022-10-16T04:11:23;18405.66;;;-141.84;92.53
15260;BME280;34462;51.368;12.364;2022-10-16T04:13:51;18407.69;;;-141.84;92.17
15260;BME280;34462;51.368;12.364;2022-10-16T04:16:19;18387.38;;;-141.84;92.10
15260;BME280;34462;51.368;12.364;2022-10-16T04:18:47;18379.25;;;-141.84;92.08
15260;BME280;34462;51.368;12.364;2022-10-16T04:21:15;18387.38;;;-141.84;92.12
15260;BME280;34462;51.368;12.364;2022-10-16T04:23:43;18399.56;;;-141.84;91.97
15260;BME280;34462;51.368;12.364;2022-10-16T04:26:11;18407.69;;;-141.84;91.35
15260;BME280;34462;51.368;12.364;2022-10-16T04:28:40;18358.94;;;-141.84;91.14
15260;BME280;34462;51.368;12.364;2022-10-16T04:31:08;18342.69;;;-141.84;91.18
15260;BME280;34462;51.368;12.364;2022-10-16T04:33:36;18395.50;;;-141.84;91.32
15260;BME280;34462;51.368;12.364;2022-10-16T04:36:05;18383.31;;;-141.84;91.33
15260;BME280;34462;51.368;12.364;2022-10-16T04:38:33;18430.06;;;-141.84;91.01
15260;BME280;34462;51.368;12.364;2022-10-16T04:41:01;18365.03;;;-141.84;90.18
15260;BME280;34462;51.368;12.364;2022-10-16T04:43:29;18375.19;;;-141.84;90.68
15260;BME280;34462;51.368;12.364;2022-10-16T04:45:59;18342.69;;;-141.84;91.10
15260;BME280;34462;51.368;12.364;2022-10-16T04:48:28;18411.75;;;-141.84;91.35
15260;BME280;34462;51.368;12.364;2022-10-16T04:50:56;18397.53;;;-141.84;91.02
15260;BME280;34462;51.368;12.364;2022-10-16T04:53:24;18363.00;;;-141.84;90.88
15260;BME280;34462;51.368;12.364;2022-10-16T04:55:52;18356.91;;;-141.84;91.08
15260;BME280;34462;51.368;12.364;2022-10-16T04:58:20;18369.09;;;-141.84;91.30
15260;BME280;34462;51.368;12.364;2022-10-16T05:00:48;18363.00;;;-141.84;91.06
15260;BME280;34462;51.368;12.364;2022-10-16T05:03:17;18354.88;;;-141.84;90.55
15260;BME280;34462;51.368;12.364;2022-10-16T05:05:46;18371.13;;;-141.84;90.66
15260;BME280;34462;51.368;12.364;2022-10-16T05:08:16;18350.81;;;-141.84;90.69
15260;BME280;34462;51.368;12.364;2022-10-16T05:10:45;18395.50;;;-141.84;90.88
15260;BME280;34462;51.368;12.364;2022-10-16T05:13:13;18348.78;;;-141.84;91.08
15260;BME280;34462;51.368;12.364;2022-10-16T05:15:41;18395.50;;;-141.84;91.14
15260;BME280;34462;51.368;12.364;2022-10-16T05:18:09;18348.78;;;-141.84;90.87
15260;BME280;34462;51.368;12.364;2022-10-16T05:20:38;18334.56;;;-141.84;90.87
15260;BME280;34462;51.368;12.364;2022-10-16T05:23:06;18369.09;;;-141.84;90.87
15260;BME280;34462;51.368;12.364;2022-10-16T05:25:37;18375.19;;;-141.84;90.90
15260;BME280;34462;51.368;12.364;2022-10-16T05:28:05;18377.22;;;-141.84;90.94
15260;BME280;34462;51.368;12.364;2022-10-16T05:30:33;18312.22;;;-141.84;90.69
15260;BME280;34462;51.368;12.364;2022-10-16T05:33:01;18320.34;;;-141.84;90.75
15260;BME280;34462;51.368;12.364;2022-10-16T05:35:29;18340.66;;;-141.84;90.74
15260;BME280;34462;51.368;12.364;2022-10-16T05:37:58;18318.31;;;-141.84;90.86
15260;BME280;34462;51.368;12.364;2022-10-16T05:40:26;18324.41;;;-141.84;90.67
15260;BME280;34462;51.368;12.364;2022-10-16T05:42:55;18379.25;;;-141.84;90.73
15260;BME280;34462;51.368;12.364;2022-10-16T05:45:23;18367.06;;;-141.84;90.55
15260;BME280;34462;51.368;12.364;2022-10-16T05:47:51;18344.72;;;-141.84;90.19
15260;BME280;34462;51.368;12.364;2022-10-16T05:50:19;18326.44;;;-141.84;90.05
15260;BME280;34462;51.368;12.364;2022-10-16T05:52:47;18350.81;;;-141.84;89.67
15260;BME280;34462;51.368;12.364;2022-10-16T05:55:17;18363.00;;;-141.84;89.25
15260;BME280;34462;51.368;12.364;2022-10-16T05:57:45;18350.81;;;-141.84;89.00
15260;BME280;34462;51.368;12.364;2022-10-16T06:00:13;18387.38;;;-141.84;88.88
15260;BME280;34462;51.368;12.364;2022-10-16T06:02:41;18369.09;;;-141.84;88.21
15260;BME280;34462;51.368;12.364;2022-10-16T06:05:09;18381.28;;;-141.84;87.86
15260;BME280;34462;51.368;12.364;2022-10-16T06:07:37;18391.44;;;-141.84;86.98
15260;BME280;34462;51.368;12.364;2022-10-16T06:10:07;18413.78;;;-141.84;84.69
15260;BME280;34462;51.368;12.364;2022-10-16T06:12:37;18452.41;;;-141.84;84.02
15260;BME280;34462;51.368;12.364;2022-10-16T06:15:05;18454.44;;;-141.84;84.24
15260;BME280;34462;51.368;12.364;2022-10-16T06:17:33;18448.34;;;-141.84;84.49
15260;BME280;34462;51.368;12.364;2022-10-16T06:20:01;18476.78;;;-141.84;84.30
15260;BME280;34462;51.368;12.364;2022-10-16T06:22:29;18460.53;;;-141.84;84.27
15260;BME280;34462;51.368;12.364;2022-10-16T06:24:57;18525.53;;;-141.84;83.88
15260;BME280;34462;51.368;12.364;2022-10-16T06:27:25;18501.16;;;-141.84;83.59
15260;BME280;34462;51.368;12.364;2022-10-16T06:29:55;18545.84;;;-141.84;83.13
15260;BME280;34462;51.368;12.364;2022-10-16T06:32:24;18515.38;;;-141.84;82.67
15260;BME280;34462;51.368;12.364;2022-10-16T06:34:52;18549.91;;;-141.84;82.23
15260;BME280;34462;51.368;12.364;2022-10-16T06:37:20;18541.78;;;-141.84;81.93
15260;BME280;34462;51.368;12.364;2022-10-16T06:39:48;18547.88;;;-141.84;81.29
15260;BME280;34462;51.368;12.364;2022-10-16T06:42:16;18614.94;;;-141.84;80.86
15260;BME280;34462;51.368;12.364;2022-10-16T06:44:44;18604.78;;;-141.84;80.60
15260;BME280;34462;51.368;12.364;2022-10-16T06:47:14;18606.81;;;-141.84;80.23
15260;BME280;34462;51.368;12.364;2022-10-16T06:49:42;18608.84;;;-141.84;80.55
15260;BME280;34462;51.368;12.364;2022-10-16T06:52:10;18631.19;;;-141.84;80.01
15260;BME280;34462;51.368;12.364;2022-10-16T06:54:38;18627.13;;;-141.84;79.34
15260;BME280;34462;51.368;12.364;2022-10-16T06:57:08;18612.91;;;-141.84;79.03
15260;BME280;34462;51.368;12.364;2022-10-16T06:59:36;18627.13;;;-141.84;79.72
15260;BME280;34462;51.368;12.364;2022-10-16T07:02:04;18688.06;;;-141.84;79.66
15260;BME280;34462;51.368;12.364;2022-10-16T07:04:36;18649.47;;;-141.84;79.79
15260;BME280;34462;51.368;12.364;2022-10-16T07:07:04;18671.81;;;-141.84;79.88
15260;BME280;34462;51.368;12.364;2022-10-16T07:09:35;18677.91;;;-141.84;80.29
15260;BME280;34462;51.368;12.364;2022-10-16T07:12:04;18647.44;;;-141.84;80.53
15260;BME280;34462;51.368;12.364;2022-10-16T07:14:32;18645.41;;;-141.84;80.46
15260;BME280;34462;51.368;12.364;2022-10-16T07:17:00;18692.13;;;-141.84;79.63
15260;BME280;34462;51.368;12.364;2022-10-16T07:19:28;18751.06;;;-141.84;79.07
15260;BME280;34462;51.368;12.364;2022-10-16T07:22:01;18698.22;;;-141.84;79.28
15260;BME280;34462;51.368;12.364;2022-10-16T07:24:29;18771.38;;;-141.84;78.89
15260;BME280;34462;51.368;12.364;2022-10-16T07:26:57;18773.41;;;-141.84;78.75
15260;BME280;34462;51.368;12.364;2022-10-16T07:29:25;18779.50;;;-141.84;77.62
15260;BME280;34462;51.368;12.364;2022-10-16T07:31:53;18840.47;;;-141.84;77.50
15260;BME280;34462;51.368;12.364;2022-10-16T07:34:21;18858.75;;;-141.84;76.23
15260;BME280;34462;51.368;12.364;2022-10-16T07:36:50;18846.56;;;-141.84;76.89
15260;BME280;34462;51.368;12.364;2022-10-16T07:39:20;18854.69;;;-141.84;76.77
15260;BME280;34462;51.368;12.364;2022-10-16T07:41:48;18826.25;;;-141.84;77.14
15260;BME280;34462;51.368;12.364;2022-10-16T07:44:16;18822.19;;;-141.84;77.67
15260;BME280;34462;51.368;12.364;2022-10-16T07:46:44;18852.66;;;-141.84;78.00
15260;BME280;34462;51.368;12.364;2022-10-16T07:49:12;18877.03;;;-141.84;77.18
15260;BME280;34462;51.368;12.364;2022-10-16T07:51:40;18881.09;;;-141.84;76.70
15260;BME280;34462;51.368;12.364;2022-10-16T07:54:08;18946.13;;;-141.84;75.35
15260;BME280;34462;51.368;12.364;2022-10-16T07:56:38;18952.22;;;-141.84;75.19
15260;BME280;34462;51.368;12.364;2022-10-16T07:59:10;19082.25;;;-141.84;73.37
15260;BME280;34462;51.368;12.364;2022-10-16T08:01:38;19037.56;;;-141.84;72.68
15260;BME280;34462;51.368;12.364;2022-10-16T08:04:06;19192.00;;;-141.84;71.29
15260;BME280;34462;51.368;12.364;2022-10-16T08:06:36;19157.44;;;-141.84;71.60
15260;BME280;34462;51.368;12.364;2022-10-16T08:09:05;19220.44;;;-141.84;71.69
15260;BME280;34462;51.368;12.364;2022-10-16T08:11:34;19273.28;;;-141.84;71.07
15260;BME280;34462;51.368;12.364;2022-10-16T08:14:03;19439.91;;;-141.84;68.41
15260;BME280;34462;51.368;12.364;2022-10-16T08:16:32;19590.28;;;-141.84;67.11
15260;BME280;34462;51.368;12.364;2022-10-16T08:19:00;19761.00;;;-141.84;65.77
15260;BME280;34462;51.368;12.364;2022-10-16T08:21:28;19895.13;;;-141.84;64.69
15260;BME280;34462;51.368;12.364;2022-10-16T08:23:56;20134.97;;;-141.84;62.93
15260;BME280;34462;51.368;12.364;2022-10-16T08:26:26;20224.41;;;-141.84;62.98
15260;BME280;34462;51.368;12.364;2022-10-16T08:28:55;20234.56;;;-141.84;62.84
15260;BME280;34462;51.368;12.364;2022-10-16T08:31:25;20074.00;;;-141.84;64.83
15260;BME280;34462;51.368;12.364;2022-10-16T08:33:54;20051.63;;;-141.84;64.83
15260;BME280;34462;51.368;12.364;2022-10-16T08:36:22;20021.16;;;-141.84;65.14
15260;BME280;34462;51.368;12.364;2022-10-16T08:38:50;19919.53;;;-141.84;65.60
15260;BME280;34462;51.368;12.364;2022-10-16T08:45:09;19994.72;;;-141.84;65.30
15260;BME280;34462;51.368;12.364;2022-10-16T08:47:49;20128.88;;;-141.84;64.13
15260;BME280;34462;51.368;12.364;2022-10-16T08:50:25;20206.09;;;-141.84;63.85
15260;BME280;34462;51.368;12.364;2022-10-16T08:52:55;20122.78;;;-141.84;64.14
15260;BME280;34462;51.368;12.364;2022-10-16T08:55:32;20015.03;;;-141.84;65.37
15260;BME280;34462;51.368;12.364;2022-10-16T08:58:01;20006.91;;;-141.84;65.30
15260;BME280;34462;51.368;12.364;2022-10-16T09:00:30;20008.94;;;-141.84;65.35
15260;BME280;34462;51.368;12.364;2022-10-16T09:03:13;20098.38;;;-141.84;64.48
15260;BME280;34462;51.368;12.364;2022-10-16T09:09:02;20193.91;;;-141.84;64.18
15260;BME280;34462;51.368;12.364;2022-10-16T09:11:47;20380.91;;;-141.84;62.86
15260;BME280;34462;51.368;12.364;2022-10-16T09:14:40;20756.97;;;-141.84;58.72
15260;BME280;34462;51.368;12.364;2022-10-16T09:17:36;20742.75;;;-141.84;59.61
15260;BME280;34462;51.368;12.364;2022-10-16T09:20:22;20746.81;;;-141.84;59.36
15260;BME280;34462;51.368;12.364;2022-10-16T09:23:12;20588.25;;;-141.84;61.38
15260;BME280;34462;51.368;12.364;2022-10-16T09:25:45;20574.00;;;-141.84;61.70
15260;BME280;34462;51.368;12.364;2022-10-16T09:28:15;20545.56;;;-141.84;61.53
15260;BME280;34462;51.368;12.364;2022-10-16T09:30:44;20551.66;;;-141.84;61.50
15260;BME280;34462;51.368;12.364;2022-10-16T09:33:17;20533.34;;;-141.84;61.62
15260;BME280;34462;51.368;12.364;2022-10-16T09:35:50;20492.72;;;-141.84;62.65
15260;BME280;34462;51.368;12.364;2022-10-16T09:38:25;20468.31;;;-141.84;62.71
15260;BME280;34462;51.368;12.364;2022-10-16T09:40:56;20500.84;;;-141.84;61.98
15260;BME280;34462;51.368;12.364;2022-10-16T09:43:36;20539.47;;;-141.84;62.02
15260;BME280;34462;51.368;12.364;2022-10-16T09:46:21;20655.31;;;-141.84;61.20
15260;BME280;34462;51.368;12.364;2022-10-16T09:48:54;20761.03;;;-141.84;59.93
15260;BME280;34462;51.368;12.364;2022-10-16T09:51:27;20852.50;;;-141.84;59.17
15260;BME280;34462;51.368;12.364;2022-10-16T09:53:59;20803.72;;;-141.84;59.56
15260;BME280;34462;51.368;12.364;2022-10-16T09:56:29;20795.59;;;-141.84;60.16
15260;BME280;34462;51.368;12.364;2022-10-16T09:59:01;20929.75;;;-141.84;58.28
15260;BME280;34462;51.368;12.364;2022-10-16T10:01:36;20911.47;;;-141.84;58.30
15260;BME280;34462;51.368;12.364;2022-10-16T10:04:07;20897.25;;;-141.84;58.66
15260;BME280;34462;51.368;12.364;2022-10-16T10:06:42;20842.34;;;-141.84;59.80
15260;BME280;34462;51.368;12.364;2022-10-16T10:09:21;20803.72;;;-141.84;60.26
15260;BME280;34462;51.368;12.364;2022-10-16T10:11:53;20809.81;;;-141.84;59.93
15260;BME280;34462;51.368;12.364;2022-10-16T10:14:35;20777.28;;;-141.84;60.54
15260;BME280;34462;51.368;12.364;2022-10-16T10:17:15;20887.06;;;-141.84;58.69
15260;BME280;34462;51.368;12.364;2022-10-16T10:19:48;20897.25;;;-141.84;58.69
15260;BME280;34462;51.368;12.364;2022-10-16T10:22:28;20954.16;;;-141.84;58.25
15260;BME280;34462;51.368;12.364;2022-10-16T10:25:16;20948.06;;;-141.84;57.97
15260;BME280;34462;51.368;12.364;2022-10-16T10:28:08;20970.41;;;-141.84;58.18
15260;BME280;34462;51.368;12.364;2022-10-16T10:30:51;20960.25;;;-141.84;58.69
15260;BME280;34462;51.368;12.364;2022-10-16T10:33:31;20950.09;;;-141.84;58.95
15260;BME280;34462;51.368;12.364;2022-10-16T10:36:18;20864.72;;;-141.84;59.42
15260;BME280;34462;51.368;12.364;2022-10-16T10:38:53;20785.44;;;-141.84;60.44
15260;BME280;34462;51.368;12.364;2022-10-16T10:42:04;20722.41;;;-141.84;61.17
15260;BME280;34462;51.368;12.364;2022-10-16T10:45:11;20724.44;;;-141.84;61.84
15260;BME280;34462;51.368;12.364;2022-10-16T10:48:03;20679.72;;;-141.84;61.37
15260;BME280;34462;51.368;12.364;2022-10-16T10:50:42;20685.81;;;-141.84;61.91
15260;BME280;34462;51.368;12.364;2022-10-16T10:53:39;20602.47;;;-141.84;62.77
15260;BME280;34462;51.368;12.364;2022-10-16T10:56:39;20614.66;;;-141.84;62.26
15260;BME280;34462;51.368;12.364;2022-10-16T10:59:40;20685.81;;;-141.84;61.49
15260;BME280;34462;51.368;12.364;2022-10-16T11:02:22;20720.38;;;-141.84;61.14
15260;BME280;34462;51.368;12.364;2022-10-16T11:05:26;20756.97;;;-141.84;60.90
15260;BME280;34462;51.368;12.364;2022-10-16T11:08:00;20742.75;;;-141.84;60.66
15260;BME280;34462;51.368;12.364;2022-10-16T11:10:38;20801.69;;;-141.84;60.70
15260;BME280;34462;51.368;12.364;2022-10-16T11:13:25;20687.84;;;-141.84;61.56
15260;BME280;34462;51.368;12.364;2022-10-16T11:16:00;20736.63;;;-141.84;61.31
15260;BME280;34462;51.368;12.364;2022-10-16T11:18:42;20740.69;;;-141.84;61.14
15260;BME280;34462;51.368;12.364;2022-10-16T11:21:16;20840.31;;;-141.84;60.16
15260;BME280;34462;51.368;12.364;2022-10-16T11:23:53;20752.91;;;-141.84;60.65
15260;BME280;34462;51.368;12.364;2022-10-16T11:26:29;20878.94;;;-141.84;59.53
15260;BME280;34462;51.368;12.364;2022-10-16T11:29:04;20838.28;;;-141.84;60.64
15260;BME280;34462;51.368;12.364;2022-10-16T11:31:45;20923.66;;;-141.84;59.25
15260;BME280;34462;51.368;12.364;2022-10-16T11:34:24;20907.41;;;-141.84;58.79
15260;BME280;34462;51.368;12.364;2022-10-16T11:36:58;20899.28;;;-141.84;59.38
15260;BME280;34462;51.368;12.364;2022-10-16T11:39:30;20899.28;;;-141.84;59.50
15260;BME280;34462;51.368;12.364;2022-10-16T11:42:05;20846.41;;;-141.84;60.42
15260;BME280;34462;51.368;12.364;2022-10-16T11:44:51;20858.59;;;-141.84;60.17
15260;BME280;34462;51.368;12.364;2022-10-16T11:47:32;20846.41;;;-141.84;60.24
15260;BME280;34462;51.368;12.364;2022-10-16T11:50:29;20878.94;;;-141.84;60.08
15260;BME280;34462;51.368;12.364;2022-10-16T11:53:07;20862.69;;;-141.84;60.21
15260;BME280;34462;51.368;12.364;2022-10-16T11:55:40;20838.28;;;-141.84;60.28
15260;BME280;34462;51.368;12.364;2022-10-16T11:58:22;20846.41;;;-141.84;60.22
15260;BME280;34462;51.368;12.364;2022-10-16T12:01:03;20824.06;;;-141.84;60.30
15260;BME280;34462;51.368;12.364;2022-10-16T12:03:43;20828.13;;;-141.84;60.24
15260;BME280;34462;51.368;12.364;2022-10-16T12:06:30;20797.63;;;-141.84;61.06
15260;BME280;34462;51.368;12.364;2022-10-16T12:09:00;20789.50;;;-141.84;61.16
15260;BME280;34462;51.368;12.364;2022-10-16T12:11:36;20781.38;;;-141.84;61.31
15260;BME280;34462;51.368;12.364;2022-10-16T12:14:33;20732.56;;;-141.84;61.23
15260;BME280;34462;51.368;12.364;2022-10-16T12:17:35;20624.84;;;-141.84;62.46
15260;BME280;34462;51.368;12.364;2022-10-16T12:20:23;20616.69;;;-141.84;62.77
15260;BME280;34462;51.368;12.364;2022-10-16T12:22:56;20517.09;;;-141.84;64.15
15260;BME280;34462;51.368;12.364;2022-10-16T12:25:28;20425.63;;;-141.84;65.02
15260;BME280;34462;51.368;12.364;2022-10-16T12:28:01;20364.66;;;-141.84;65.53
15260;BME280;34462;51.368;12.364;2022-10-16T12:30:34;20315.88;;;-141.84;65.91
15260;BME280;34462;51.368;12.364;2022-10-16T12:33:05;20324.00;;;-141.84;65.91
15260;BME280;34462;51.368;12.364;2022-10-16T12:35:43;20230.50;;;-141.84;66.37
15260;BME280;34462;51.368;12.364;2022-10-16T12:38:18;20128.88;;;-141.84;66.92
15260;BME280;34462;51.368;12.364;2022-10-16T12:40:58;20110.56;;;-141.84;67.59
15260;BME280;34462;51.368;12.364;2022-10-16T12:43:37;20086.19;;;-141.84;67.52
15260;BME280;34462;51.368;12.364;2022-10-16T12:46:23;20141.06;;;-141.84;66.67
15260;BME280;34462;51.368;12.364;2022-10-16T12:49:05;20254.88;;;-141.84;64.74
15260;BME280;34462;51.368;12.364;2022-10-16T12:51:36;20208.13;;;-141.84;64.98
15260;BME280;34462;51.368;12.364;2022-10-16T12:54:14;20354.47;;;-141.84;63.94
15260;BME280;34462;51.368;12.364;2022-10-16T12:56:59;20334.16;;;-141.84;64.24
15260;BME280;34462;51.368;12.364;2022-10-16T12:59:42;20411.41;;;-141.84;63.17
15260;BME280;34462;51.368;12.364;2022-10-16T13:02:39;20338.22;;;-141.84;64.48
15260;BME280;34462;51.368;12.364;2022-10-16T13:05:27;20393.09;;;-141.84;63.99
15260;BME280;34462;51.368;12.364;2022-10-16T13:08:13;20403.25;;;-141.84;63.61